FFL777 KDEN-KASE
Flight info
| Callsign | FFL777 |
|---|---|
| Flight time | 0h 27m |
| Altitude | 24000 |
| Route | CONNR8 WERNR ZAKOR |
| Aircraft | B737/M-SDE2E3FGHIRWXY/LB1 |
Departure
| Time | 2026-04-25 01:01 |
|---|---|
| Airport | Denver International Airport (KDEN) |
Arrival
| Time | 2026-04-25 01:28 |
|---|---|
| Airport | Aspen-Pitkin County Airport (Sardy Field) (KASE) |
| Time | Latitude | Longitude | Altitude | Speed | Heading |
|---|---|---|---|---|---|
| 2026-04-25 00:47 | 39.83843 | -104.66388 | 5415 ft | 0 kts | 276° |
| 2026-04-25 00:54 | 39.83843 | -104.66389 | 5401 ft | 0 kts | 276° |
| 2026-04-25 00:54 | 39.83874 | -104.66405 | 5406 ft | 9 kts | 12° |
| 2026-04-25 00:54 | 39.83937 | -104.66387 | 5406 ft | 9 kts | 8° |
| 2026-04-25 00:54 | 39.83998 | -104.66366 | 5409 ft | 9 kts | 30° |
| 2026-04-25 00:55 | 39.84025 | -104.66295 | 5412 ft | 10 kts | 66° |
| 2026-04-25 00:55 | 39.84164 | -104.66252 | 5402 ft | 21 kts | 0° |
| 2026-04-25 00:55 | 39.84266 | -104.66251 | 5411 ft | 23 kts | 1° |
| 2026-04-25 00:55 | 39.84440 | -104.66249 | 5404 ft | 27 kts | 0° |
| 2026-04-25 00:56 | 39.84630 | -104.66247 | 5404 ft | 28 kts | 360° |
| 2026-04-25 00:56 | 39.84825 | -104.66246 | 5399 ft | 28 kts | 1° |
| 2026-04-25 00:56 | 39.85018 | -104.66241 | 5397 ft | 28 kts | 1° |
| 2026-04-25 00:56 | 39.85220 | -104.66241 | 5397 ft | 30 kts | 359° |
| 2026-04-25 00:57 | 39.85422 | -104.66241 | 5394 ft | 28 kts | 0° |
| 2026-04-25 00:57 | 39.85613 | -104.66237 | 5389 ft | 28 kts | 0° |
| 2026-04-25 00:57 | 39.85813 | -104.66235 | 5387 ft | 30 kts | 0° |
| 2026-04-25 00:57 | 39.86014 | -104.66234 | 5386 ft | 27 kts | 0° |
| 2026-04-25 00:58 | 39.86200 | -104.66230 | 5381 ft | 28 kts | 0° |
| 2026-04-25 00:58 | 39.86385 | -104.66228 | 5381 ft | 26 kts | 0° |
| 2026-04-25 00:58 | 39.86557 | -104.66225 | 5377 ft | 24 kts | 0° |
| 2026-04-25 00:58 | 39.86723 | -104.66223 | 5376 ft | 25 kts | 0° |
| 2026-04-25 00:59 | 39.86935 | -104.66219 | 5369 ft | 33 kts | 1° |
| 2026-04-25 00:59 | 39.87167 | -104.66217 | 5365 ft | 33 kts | 0° |
| 2026-04-25 00:59 | 39.87389 | -104.66216 | 5361 ft | 31 kts | 0° |
| 2026-04-25 00:59 | 39.87548 | -104.66211 | 5361 ft | 19 kts | 1° |
| 2026-04-25 01:00 | 39.87679 | -104.66211 | 5361 ft | 18 kts | 0° |
| 2026-04-25 01:00 | 39.87753 | -104.66192 | 5360 ft | 7 kts | 65° |
| 2026-04-25 01:00 | 39.87756 | -104.66134 | 5359 ft | 6 kts | 90° |
| 2026-04-25 01:00 | 39.87756 | -104.66075 | 5358 ft | 6 kts | 91° |
| 2026-04-25 01:01 | 39.87753 | -104.65826 | 5355 ft | 72 kts | 90° |
| 2026-04-25 01:01 | 39.87739 | -104.64742 | 5355 ft | 162 kts | 90° |
| 2026-04-25 01:01 | 39.87706 | -104.63081 | 6072 ft | 192 kts | 91° |
| 2026-04-25 01:01 | 39.87583 | -104.61421 | 7643 ft | 173 kts | 98° |
| 2026-04-25 01:02 | 39.87288 | -104.60012 | 9022 ft | 160 kts | 110° |
| 2026-04-25 01:02 | 39.86693 | -104.58620 | 9472 ft | 200 kts | 125° |
| 2026-04-25 01:02 | 39.85562 | -104.57167 | 9435 ft | 253 kts | 143° |
| 2026-04-25 01:02 | 39.83965 | -104.56071 | 10135 ft | 260 kts | 165° |
| 2026-04-25 01:03 | 39.82239 | -104.55759 | 11394 ft | 245 kts | 188° |
| 2026-04-25 01:03 | 39.80544 | -104.56309 | 12026 ft | 266 kts | 208° |
| 2026-04-25 01:03 | 39.78907 | -104.57806 | 11963 ft | 312 kts | 225° |
| 2026-04-25 01:03 | 39.77651 | -104.60253 | 12544 ft | 334 kts | 246° |
| 2026-04-25 01:04 | 39.77265 | -104.63170 | 14151 ft | 323 kts | 271° |
| 2026-04-25 01:04 | 39.77775 | -104.65908 | 15922 ft | 308 kts | 281° |
| 2026-04-25 01:04 | 39.77984 | -104.68650 | 17073 ft | 307 kts | 265° |
| 2026-04-25 01:04 | 39.77887 | -104.71475 | 17961 ft | 317 kts | 262° |
| 2026-04-25 01:05 | 39.77746 | -104.74356 | 19081 ft | 318 kts | 265° |
| 2026-04-25 01:05 | 39.77675 | -104.77247 | 20109 ft | 323 kts | 265° |
| 2026-04-25 01:05 | 39.77630 | -104.80151 | 21344 ft | 321 kts | 266° |
| 2026-04-25 01:05 | 39.77610 | -104.83032 | 22417 ft | 319 kts | 265° |
| 2026-04-25 01:06 | 39.77555 | -104.85925 | 23399 ft | 321 kts | 263° |
| 2026-04-25 01:06 | 39.77467 | -104.88822 | 23769 ft | 315 kts | 265° |
| 2026-04-25 01:06 | 39.77418 | -104.91698 | 23922 ft | 323 kts | 265° |
| 2026-04-25 01:06 | 39.77398 | -104.94636 | 23926 ft | 326 kts | 266° |
| 2026-04-25 01:07 | 39.77390 | -104.97557 | 23938 ft | 320 kts | 265° |
| 2026-04-25 01:07 | 39.77355 | -105.00439 | 23931 ft | 317 kts | 265° |
| 2026-04-25 01:07 | 39.77314 | -105.03289 | 23944 ft | 315 kts | 264° |
| 2026-04-25 01:07 | 39.77274 | -105.06139 | 23953 ft | 316 kts | 264° |
| 2026-04-25 01:08 | 39.77233 | -105.09014 | 23952 ft | 321 kts | 264° |
| 2026-04-25 01:08 | 39.77194 | -105.11921 | 23949 ft | 321 kts | 264° |
| 2026-04-25 01:08 | 39.77157 | -105.14814 | 23936 ft | 319 kts | 264° |
| 2026-04-25 01:08 | 39.77121 | -105.17688 | 23935 ft | 317 kts | 264° |
| 2026-04-25 01:09 | 39.77083 | -105.20549 | 23936 ft | 317 kts | 264° |
| 2026-04-25 01:09 | 39.77043 | -105.23414 | 23943 ft | 317 kts | 264° |
| 2026-04-25 01:09 | 39.76967 | -105.26231 | 23940 ft | 314 kts | 260° |
| 2026-04-25 01:09 | 39.76587 | -105.29004 | 23943 ft | 311 kts | 252° |
| 2026-04-25 01:10 | 39.76025 | -105.31709 | 23978 ft | 311 kts | 251° |
| 2026-04-25 01:10 | 39.75454 | -105.34422 | 23986 ft | 312 kts | 251° |
| 2026-04-25 01:10 | 39.74889 | -105.37150 | 24011 ft | 313 kts | 252° |
| 2026-04-25 01:10 | 39.74326 | -105.39879 | 24024 ft | 314 kts | 251° |
| 2026-04-25 01:11 | 39.73762 | -105.42625 | 24054 ft | 314 kts | 252° |
| 2026-04-25 01:11 | 39.73201 | -105.45371 | 24048 ft | 313 kts | 251° |
| 2026-04-25 01:11 | 39.72640 | -105.48105 | 24064 ft | 314 kts | 252° |
| 2026-04-25 01:11 | 39.72078 | -105.50848 | 24087 ft | 315 kts | 251° |
| 2026-04-25 01:12 | 39.71510 | -105.53599 | 24083 ft | 315 kts | 251° |
| 2026-04-25 01:12 | 39.70945 | -105.56344 | 24091 ft | 313 kts | 252° |
| 2026-04-25 01:12 | 39.70393 | -105.59077 | 24116 ft | 313 kts | 251° |
| 2026-04-25 01:12 | 39.69827 | -105.61793 | 24131 ft | 311 kts | 251° |
| 2026-04-25 01:13 | 39.69275 | -105.64467 | 24151 ft | 311 kts | 251° |
| 2026-04-25 01:13 | 39.68729 | -105.67194 | 24145 ft | 312 kts | 253° |
| 2026-04-25 01:13 | 39.68304 | -105.69964 | 24159 ft | 314 kts | 255° |
| 2026-04-25 01:13 | 39.67934 | -105.72764 | 24146 ft | 315 kts | 256° |
| 2026-04-25 01:14 | 39.67576 | -105.75566 | 24160 ft | 315 kts | 256° |
| 2026-04-25 01:14 | 39.67215 | -105.78368 | 24142 ft | 315 kts | 256° |
| 2026-04-25 01:14 | 39.66850 | -105.81166 | 24140 ft | 314 kts | 256° |
| 2026-04-25 01:14 | 39.66482 | -105.83954 | 24162 ft | 313 kts | 255° |
| 2026-04-25 01:15 | 39.66101 | -105.86774 | 24188 ft | 327 kts | 256° |
| 2026-04-25 01:15 | 39.65687 | -105.89778 | 24180 ft | 349 kts | 256° |
| 2026-04-25 01:15 | 39.65243 | -105.92971 | 24180 ft | 370 kts | 256° |
| 2026-04-25 01:15 | 39.64773 | -105.96336 | 24176 ft | 387 kts | 256° |
| 2026-04-25 01:16 | 39.64285 | -105.99841 | 24160 ft | 402 kts | 256° |
| 2026-04-25 01:16 | 39.63790 | -106.03441 | 24158 ft | 409 kts | 256° |
| 2026-04-25 01:16 | 39.63291 | -106.07087 | 24145 ft | 409 kts | 256° |
| 2026-04-25 01:16 | 39.62794 | -106.10711 | 24131 ft | 407 kts | 256° |
| 2026-04-25 01:17 | 39.62296 | -106.14313 | 24099 ft | 406 kts | 257° |
| 2026-04-25 01:17 | 39.61796 | -106.17913 | 24126 ft | 406 kts | 256° |
| 2026-04-25 01:17 | 39.61293 | -106.21524 | 24132 ft | 408 kts | 256° |
| 2026-04-25 01:17 | 39.60764 | -106.25145 | 24148 ft | 409 kts | 256° |
| 2026-04-25 01:18 | 39.60244 | -106.28768 | 23654 ft | 410 kts | 256° |
| 2026-04-25 01:18 | 39.59740 | -106.32383 | 23144 ft | 407 kts | 256° |
| 2026-04-25 01:18 | 39.59242 | -106.35969 | 22504 ft | 399 kts | 256° |
| 2026-04-25 01:18 | 39.58760 | -106.39440 | 21876 ft | 382 kts | 256° |
| 2026-04-25 01:19 | 39.58294 | -106.42745 | 21277 ft | 363 kts | 256° |
| 2026-04-25 01:19 | 39.57849 | -106.45886 | 20685 ft | 346 kts | 255° |
| 2026-04-25 01:19 | 39.57424 | -106.48878 | 20141 ft | 330 kts | 255° |
| 2026-04-25 01:19 | 39.57020 | -106.51710 | 19637 ft | 317 kts | 255° |
| 2026-04-25 01:20 | 39.56621 | -106.54484 | 19136 ft | 309 kts | 255° |
| 2026-04-25 01:20 | 39.56229 | -106.57203 | 18666 ft | 305 kts | 255° |
| 2026-04-25 01:20 | 39.55840 | -106.59895 | 18178 ft | 304 kts | 255° |
| 2026-04-25 01:20 | 39.55450 | -106.62600 | 17653 ft | 309 kts | 255° |
| 2026-04-25 01:21 | 39.55048 | -106.65372 | 17183 ft | 315 kts | 255° |
| 2026-04-25 01:21 | 39.54634 | -106.68170 | 16579 ft | 318 kts | 255° |
| 2026-04-25 01:21 | 39.54139 | -106.70989 | 15946 ft | 321 kts | 253° |
| 2026-04-25 01:21 | 39.53616 | -106.73812 | 15367 ft | 322 kts | 254° |
| 2026-04-25 01:22 | 39.53100 | -106.76617 | 14869 ft | 318 kts | 254° |
| 2026-04-25 01:22 | 39.52558 | -106.79339 | 14634 ft | 302 kts | 247° |
| 2026-04-25 01:22 | 39.51508 | -106.81565 | 14462 ft | 279 kts | 229° |
| 2026-04-25 01:22 | 39.50193 | -106.83288 | 14336 ft | 261 kts | 219° |
| 2026-04-25 01:23 | 39.48794 | -106.84710 | 14231 ft | 251 kts | 217° |
| 2026-04-25 01:23 | 39.47446 | -106.86027 | 14161 ft | 234 kts | 217° |
| 2026-04-25 01:23 | 39.46195 | -106.87253 | 14052 ft | 217 kts | 217° |
| 2026-04-25 01:23 | 39.45031 | -106.88398 | 13937 ft | 205 kts | 217° |
| 2026-04-25 01:24 | 39.43804 | -106.89251 | 13841 ft | 201 kts | 191° |
| 2026-04-25 01:24 | 39.42374 | -106.89390 | 13787 ft | 215 kts | 177° |
| 2026-04-25 01:24 | 39.40891 | -106.89240 | 13512 ft | 208 kts | 176° |
| 2026-04-25 01:24 | 39.39508 | -106.89071 | 13264 ft | 192 kts | 177° |
| 2026-04-25 01:25 | 39.38229 | -106.88917 | 13031 ft | 177 kts | 177° |
| 2026-04-25 01:25 | 39.37049 | -106.88777 | 12805 ft | 164 kts | 177° |
| 2026-04-25 01:25 | 39.35796 | -106.88641 | 12863 ft | 195 kts | 177° |
| 2026-04-25 01:25 | 39.34410 | -106.88502 | 12552 ft | 205 kts | 178° |
| 2026-04-25 01:26 | 39.33005 | -106.88406 | 12061 ft | 200 kts | 181° |
| 2026-04-25 01:26 | 39.31595 | -106.88493 | 11317 ft | 206 kts | 185° |
| 2026-04-25 01:26 | 39.30201 | -106.88677 | 10710 ft | 199 kts | 185° |
| 2026-04-25 01:26 | 39.28798 | -106.88835 | 9891 ft | 203 kts | 184° |
| 2026-04-25 01:27 | 39.27386 | -106.88834 | 9091 ft | 204 kts | 175° |
| 2026-04-25 01:27 | 39.26007 | -106.88559 | 8406 ft | 192 kts | 167° |
| 2026-04-25 01:27 | 39.24787 | -106.88072 | 7999 ft | 174 kts | 159° |
| 2026-04-25 01:28 | 39.22847 | -106.87136 | 7716 ft | 118 kts | 159° |
| 2026-04-25 01:28 | 39.22284 | -106.86865 | 7751 ft | 59 kts | 160° |
| 2026-04-25 01:28 | 39.22036 | -106.86734 | 7773 ft | 20 kts | 133° |
| 2026-04-25 01:28 | 39.22053 | -106.86624 | 7770 ft | 13 kts | 58° |
| 2026-04-25 01:29 | 39.22119 | -106.86567 | 7772 ft | 13 kts | 347° |
| 2026-04-25 01:29 | 39.22163 | -106.86524 | 7768 ft | 6 kts | 62° |
| 2026-04-25 01:29 | 39.22164 | -106.86521 | 7768 ft | 0 kts | 62° |